Time;durP1;ratioP1;P1;durP2;ratioP2;P2;SDS_P1;SDS_P2;PMS_P1;PMS_P2;Temp;Humidity;BMP_temperature;BMP_pressure;BME280_temperature;BME280_humidity;BME280_pressure;Samples;Min_cycle;Max_cycle;Signal;HPM_P1;HPM_P2
2022/01/18 00:01:51;;;;;;;15.33;4.93;;;5.40;99.90;;;;;;4957059;28;20560;-69
2022/01/18 00:04:18;;;;;;;13.10;3.97;;;5.40;99.90;;;;;;4949247;28;20453;-69
2022/01/18 00:06:48;;;;;;;15.10;3.90;;;5.40;99.90;;;;;;4947810;28;20508;-69
2022/01/18 00:09:19;;;;;;;13.83;4.33;;;5.40;99.90;;;;;;4941203;28;20474;-69
2022/01/18 00:11:50;;;;;;;12.90;3.70;;;5.40;99.90;;;;;;4954693;28;20532;-69
2022/01/18 00:14:25;;;;;;;10.17;4.10;;;5.40;99.90;;;;;;4974439;28;20468;-70
2022/01/18 00:17:02;;;;;;;12.83;3.80;;;5.40;99.90;;;;;;4971681;28;20463;-70
2022/01/18 00:19:28;;;;;;;9.93;3.53;;;5.40;99.90;;;;;;4935373;29;20497;-69
2022/01/18 00:22:09;;;;;;;11.17;3.70;;;5.30;99.90;;;;;;4952799;28;20511;-70
2022/01/18 00:24:36;;;;;;;10.23;3.53;;;5.30;99.90;;;;;;4956922;28;20551;-69
2022/01/18 00:27:08;;;;;;;15.27;3.80;;;5.30;99.90;;;;;;4954835;28;20453;-70
2022/01/18 00:29:39;;;;;;;9.03;3.40;;;5.30;99.90;;;;;;4956352;28;20479;-69
2022/01/18 00:32:13;;;;;;;8.57;3.63;;;5.40;99.90;;;;;;4969869;28;20487;-69
2022/01/18 00:34:41;;;;;;;20.20;6.20;;;5.40;99.90;;;;;;4960718;28;20457;-69
2022/01/18 00:37:25;;;;;;;11.80;4.33;;;5.40;99.90;;;;;;4954626;28;20984;-69
2022/01/18 00:39:51;;;;;;;16.43;4.40;;;5.40;99.90;;;;;;4946447;28;20585;-70
2022/01/18 00:42:18;;;;;;;8.70;3.70;;;5.40;99.90;;;;;;4964857;28;21020;-70
2022/01/18 00:44:47;;;;;;;17.23;3.23;;;5.40;99.90;;;;;;4971855;28;20468;-69
2022/01/18 00:47:13;;;;;;;11.20;3.80;;;5.40;99.90;;;;;;4956567;28;20493;-70
2022/01/18 00:49:44;;;;;;;10.93;3.10;;;5.40;99.90;;;;;;4971678;28;20479;-69
2022/01/18 00:52:11;;;;;;;10.30;3.60;;;5.40;99.90;;;;;;4960256;28;20464;-70
2022/01/18 00:54:41;;;;;;;8.43;2.53;;;5.40;99.90;;;;;;4963911;28;20466;-69
2022/01/18 00:57:08;;;;;;;18.33;3.90;;;5.40;99.90;;;;;;4973199;28;20507;-69
2022/01/18 00:59:35;;;;;;;9.00;3.33;;;5.40;99.90;;;;;;4953320;28;20496;-70
2022/01/18 01:02:03;;;;;;;8.60;2.80;;;5.40;99.90;;;;;;4957224;28;20461;-69
2022/01/18 01:04:34;;;;;;;16.53;2.93;;;5.40;99.90;;;;;;4959349;28;20508;-70
2022/01/18 01:07:00;;;;;;;21.33;3.90;;;5.40;99.90;;;;;;4954137;28;20457;-70
2022/01/18 01:09:27;;;;;;;6.50;2.90;;;5.40;99.90;;;;;;4962021;28;20523;-69
2022/01/18 01:11:54;;;;;;;12.53;3.10;;;5.40;99.90;;;;;;4961343;28;20974;-69
2022/01/18 01:14:24;;;;;;;12.70;3.70;;;5.40;99.90;;;;;;4953911;28;20465;-70
2022/01/18 01:17:01;;;;;;;8.43;2.90;;;5.40;99.90;;;;;;4948933;29;20460;-69
2022/01/18 01:19:50;;;;;;;12.97;2.90;;;5.40;99.90;;;;;;4955680;28;20519;-70
2022/01/18 01:33:49;;;;;;;8.57;3.40;;;5.40;99.90;;;;;;4972352;28;20483;-69
2022/01/18 01:36:34;;;;;;;8.67;3.50;;;5.40;99.90;;;;;;4965852;28;20445;-70
2022/01/18 01:42:02;;;;;;;6.43;2.80;;;5.40;99.90;;;;;;4953426;28;20444;-70
2022/01/18 01:44:43;;;;;;;16.73;3.40;;;5.40;99.90;;;;;;4953316;28;20460;-69
2022/01/18 01:47:11;;;;;;;8.17;2.73;;;5.40;99.90;;;;;;4959048;28;20551;-69
2022/01/18 01:49:39;;;;;;;16.07;3.57;;;5.40;99.90;;;;;;4968449;28;20892;-70
2022/01/18 01:52:09;;;;;;;15.23;3.23;;;5.40;99.90;;;;;;4956352;28;20468;-70
2022/01/18 01:54:36;;;;;;;10.93;3.20;;;5.40;99.90;;;;;;4967066;28;20457;-70
2022/01/18 01:57:04;;;;;;;17.00;3.23;;;5.40;99.90;;;;;;4964827;28;20483;-69
2022/01/18 01:59:30;;;;;;;9.10;2.97;;;5.50;99.90;;;;;;4956911;28;20558;-69
2022/01/18 02:01:57;;;;;;;17.60;3.13;;;5.50;99.90;;;;;;4956947;28;21182;-70
2022/01/18 02:04:24;;;;;;;19.67;3.23;;;5.50;99.90;;;;;;4952967;28;20456;-70
2022/01/18 02:06:51;;;;;;;17.03;2.70;;;5.50;99.90;;;;;;4953242;28;20461;-69
2022/01/18 02:09:19;;;;;;;10.40;2.40;;;5.50;99.90;;;;;;4952985;28;20501;-70
2022/01/18 02:11:47;;;;;;;19.10;3.57;;;5.50;99.90;;;;;;4954303;28;20484;-69
2022/01/18 02:14:18;;;;;;;12.10;2.90;;;5.50;99.90;;;;;;4969666;28;20956;-69
2022/01/18 02:22:16;;;;;;;8.77;2.73;;;5.40;99.90;;;;;;4952960;29;20595;-69
2022/01/18 02:24:43;;;;;;;13.80;2.60;;;5.40;99.90;;;;;;4959090;28;20453;-70
2022/01/18 02:27:10;;;;;;;10.93;2.50;;;5.40;99.90;;;;;;4952966;28;20965;-69
2022/01/18 02:29:37;;;;;;;10.17;2.40;;;5.40;99.90;;;;;;4954477;28;20469;-70
2022/01/18 02:32:05;;;;;;;9.27;2.43;;;5.40;99.90;;;;;;4955985;28;20527;-69
2022/01/18 02:34:32;;;;;;;10.73;3.17;;;5.40;99.90;;;;;;4953613;28;20813;-70
2022/01/18 02:36:59;;;;;;;15.83;2.17;;;5.40;99.90;;;;;;4953085;28;20874;-69
2022/01/18 02:39:28;;;;;;;4.97;2.20;;;5.40;99.90;;;;;;4952557;28;20567;-70
2022/01/18 02:41:57;;;;;;;4.00;2.23;;;5.40;99.90;;;;;;4933842;29;20465;-70
2022/01/18 02:44:25;;;;;;;4.20;2.00;;;5.40;99.90;;;;;;4952841;28;20459;-70
2022/01/18 02:46:52;;;;;;;9.47;2.30;;;5.40;99.90;;;;;;4947699;28;20465;-70
2022/01/18 02:49:19;;;;;;;5.23;2.00;;;5.40;99.90;;;;;;4952120;28;20480;-70
2022/01/18 02:51:45;;;;;;;7.30;1.90;;;5.40;99.90;;;;;;4955141;28;20456;-70
2022/01/18 02:54:14;;;;;;;5.57;2.13;;;5.40;99.90;;;;;;4960607;28;20452;-70
2022/01/18 02:56:46;;;;;;;9.20;1.83;;;5.30;99.90;;;;;;4966732;28;20488;-70
2022/01/18 02:59:19;;;;;;;5.17;2.00;;;5.30;99.90;;;;;;4955957;28;20926;-70
2022/01/18 03:04:32;;;;;;;7.90;2.23;;;5.30;99.90;;;;;;4956171;29;20424;-69
2022/01/18 03:07:00;;;;;;;6.93;1.80;;;5.30;99.90;;;;;;4961484;28;20462;-69
2022/01/18 03:09:26;;;;;;;5.40;2.73;;;5.30;99.90;;;;;;4960138;28;20563;-69
2022/01/18 03:11:55;;;;;;;9.93;2.10;;;5.30;99.90;;;;;;4964815;28;20795;-70
2022/01/18 03:14:21;;;;;;;7.50;2.40;;;5.30;99.90;;;;;;4956176;28;20448;-69
2022/01/18 03:16:48;;;;;;;7.13;2.00;;;5.30;99.90;;;;;;4955488;28;20456;-70
2022/01/18 03:19:15;;;;;;;13.07;2.20;;;5.30;99.90;;;;;;4955703;28;20501;-70
2022/01/18 03:21:42;;;;;;;9.50;2.07;;;5.30;99.90;;;;;;4965868;28;20452;-70
2022/01/18 03:24:19;;;;;;;7.70;2.43;;;5.30;99.90;;;;;;4971284;28;20497;-70
2022/01/18 03:29:31;;;;;;;5.10;2.43;;;5.30;99.90;;;;;;4964131;28;20547;-70
2022/01/18 03:31:58;;;;;;;6.13;2.60;;;5.30;99.90;;;;;;4966944;28;20499;-70
2022/01/18 03:34:25;;;;;;;7.17;2.20;;;5.30;99.90;;;;;;4962763;28;20483;-70
2022/01/18 03:36:51;;;;;;;7.77;2.30;;;5.20;99.90;;;;;;4969936;28;20881;-70
2022/01/18 03:39:19;;;;;;;5.03;2.30;;;5.20;99.90;;;;;;4973956;28;20496;-70
2022/01/18 03:41:51;;;;;;;7.97;2.50;;;5.20;99.90;;;;;;4936485;29;20489;-70
2022/01/18 03:44:19;;;;;;;8.37;2.43;;;5.20;99.90;;;;;;4958197;28;21034;-70
2022/01/18 03:46:47;;;;;;;6.73;2.97;;;5.20;99.90;;;;;;4970195;28;20518;-70
2022/01/18 03:49:13;;;;;;;9.60;3.13;;;5.20;99.90;;;;;;4973992;28;20472;-70
2022/01/18 03:51:40;;;;;;;10.13;2.80;;;5.20;99.90;;;;;;4972765;28;20469;-70
2022/01/18 03:54:07;;;;;;;4.30;2.73;;;5.20;99.90;;;;;;4955498;28;20453;-70
2022/01/18 03:56:33;;;;;;;11.77;2.90;;;5.20;99.90;;;;;;4962497;28;20452;-70
2022/01/18 03:59:00;;;;;;;11.10;2.53;;;5.10;99.90;;;;;;4962126;28;20547;-70
2022/01/18 04:01:27;;;;;;;6.17;2.77;;;5.10;99.90;;;;;;4959312;28;20461;-70
2022/01/18 04:03:55;;;;;;;9.33;2.47;;;5.10;99.90;;;;;;4954517;28;20478;-70
2022/01/18 04:06:21;;;;;;;8.63;3.30;;;5.10;99.90;;;;;;4961262;28;20869;-70
2022/01/18 04:08:48;;;;;;;10.90;2.87;;;5.10;99.90;;;;;;4945400;28;20477;-70
2022/01/18 04:11:14;;;;;;;7.17;2.10;;;5.10;99.90;;;;;;4948188;28;21202;-70
2022/01/18 04:13:41;;;;;;;11.80;2.60;;;5.10;99.90;;;;;;4966282;28;21221;-70
2022/01/18 04:16:08;;;;;;;7.93;2.77;;;5.10;99.90;;;;;;4955530;28;20461;-70
2022/01/18 04:18:48;;;;;;;6.67;2.83;;;5.10;99.90;;;;;;4955053;28;20535;-70
2022/01/18 04:26:56;;;;;;;10.50;3.50;;;5.10;99.90;;;;;;4954161;29;20463;-70
2022/01/18 04:29:23;;;;;;;4.47;2.63;;;5.10;99.90;;;;;;4954720;28;20468;-70
2022/01/18 04:31:50;;;;;;;6.83;2.77;;;5.10;99.90;;;;;;4960364;28;20449;-70
2022/01/18 04:34:17;;;;;;;10.33;3.10;;;5.10;99.90;;;;;;4973477;28;20490;-70
2022/01/18 04:36:47;;;;;;;7.60;2.70;;;5.10;99.90;;;;;;4957542;28;20494;-70
2022/01/18 04:39:14;;;;;;;8.17;2.40;;;5.10;99.90;;;;;;4954316;28;20524;-70
2022/01/18 04:41:41;;;;;;;12.93;3.10;;;5.10;99.90;;;;;;4954620;28;20512;-70
2022/01/18 04:48:24;;;;;;;7.83;2.80;;;5.10;99.90;;;;;;4954631;28;20485;-70
2022/01/18 04:49:46;;;;;;;11.00;2.67;;;5.00;99.90;;;;;;4971844;28;20475;-70
2022/01/18 04:52:14;;;;;;;5.37;2.50;;;5.00;99.90;;;;;;4973237;28;20501;-70
2022/01/18 04:54:44;;;;;;;21.23;2.90;;;5.00;99.90;;;;;;4955820;28;20460;-70
2022/01/18 04:59:54;;;;;;;8.57;2.53;;;5.00;99.90;;;;;;4953486;28;20495;-70
2022/01/18 05:02:21;;;;;;;8.10;2.77;;;5.00;99.90;;;;;;4953814;28;20536;-70
2022/01/18 05:04:47;;;;;;;11.83;2.97;;;5.00;99.90;;;;;;4958042;28;20516;-70
2022/01/18 05:07:17;;;;;;;8.90;2.53;;;5.00;99.90;;;;;;4959153;28;20464;-70
2022/01/18 05:09:46;;;;;;;7.93;3.07;;;4.90;99.90;;;;;;4953723;28;20477;-70
2022/01/18 05:12:19;;;;;;;7.60;2.67;;;4.90;99.90;;;;;;4954386;28;20469;-70
2022/01/18 05:14:47;;;;;;;9.13;2.90;;;4.90;99.90;;;;;;4953836;28;20461;-70
2022/01/18 05:17:33;;;;;;;4.70;2.23;;;4.80;99.90;;;;;;4953576;28;20465;-70
2022/01/18 05:20:23;;;;;;;9.50;2.90;;;4.80;99.90;;;;;;4956903;28;20585;-70
2022/01/18 05:23:00;;;;;;;6.70;3.30;;;4.80;99.90;;;;;;4963196;28;20945;-70
2022/01/18 05:25:28;;;;;;;10.13;3.23;;;4.80;99.90;;;;;;4953857;28;20493;-70
2022/01/18 05:27:55;;;;;;;9.30;2.90;;;4.80;99.90;;;;;;4953414;28;20456;-70
2022/01/18 05:30:22;;;;;;;10.70;2.33;;;4.80;99.90;;;;;;4953488;28;20937;-70
2022/01/18 05:32:49;;;;;;;5.23;2.40;;;4.80;99.90;;;;;;4953698;28;20464;-70
2022/01/18 05:35:15;;;;;;;6.83;2.07;;;4.80;99.90;;;;;;4953955;28;20454;-70
2022/01/18 05:37:42;;;;;;;9.60;2.40;;;4.80;99.90;;;;;;4970499;28;20503;-71
2022/01/18 05:40:11;;;;;;;5.90;2.07;;;4.80;99.90;;;;;;4968462;28;20493;-70
2022/01/18 05:42:38;;;;;;;5.37;2.50;;;4.90;99.90;;;;;;4953556;28;20515;-70
2022/01/18 05:45:06;;;;;;;6.63;3.77;;;4.90;99.90;;;;;;4963620;28;20456;-70
2022/01/18 05:47:33;;;;;;;8.87;3.90;;;4.90;99.90;;;;;;4961345;28;20535;-70
2022/01/18 05:50:00;;;;;;;3.97;3.40;;;4.90;99.90;;;;;;4984681;22;20856;-87
2022/01/18 05:52:27;;;;;;;4.77;3.20;;;5.00;99.90;;;;;;4970476;28;20443;-87
2022/01/18 05:54:53;;;;;;;3.00;2.30;;;5.00;99.90;;;;;;4995931;28;20831;-87
2022/01/18 05:57:21;;;;;;;8.77;2.90;;;5.00;99.90;;;;;;4995613;28;20474;-88
2022/01/18 05:59:50;;;;;;;12.50;3.30;;;4.90;99.90;;;;;;4981943;28;20497;-88
2022/01/18 06:02:24;;;;;;;6.87;2.90;;;4.90;99.90;;;;;;4979586;28;20460;-88
2022/01/18 06:07:35;;;;;;;3.93;2.93;;;4.90;99.90;;;;;;4991521;28;20439;-74
2022/01/18 06:10:02;;;;;;;5.63;3.00;;;4.80;99.90;;;;;;4963379;28;20543;-74
2022/01/18 06:12:30;;;;;;;5.37;2.93;;;4.80;99.90;;;;;;4972075;28;20468;-75
2022/01/18 06:14:57;;;;;;;6.97;3.20;;;4.80;99.90;;;;;;4971063;28;20460;-74
2022/01/18 06:17:23;;;;;;;7.80;2.97;;;4.80;99.90;;;;;;4969924;28;21011;-74
2022/01/18 06:19:50;;;;;;;5.23;2.70;;;4.80;99.90;;;;;;4970935;28;20617;-75
2022/01/18 06:22:17;;;;;;;3.70;2.50;;;4.80;99.90;;;;;;4970968;28;20555;-74
2022/01/18 06:24:43;;;;;;;8.17;2.50;;;4.80;99.90;;;;;;4969977;28;20460;-74
2022/01/18 06:27:10;;;;;;;7.30;3.03;;;4.80;99.90;;;;;;4971643;28;20883;-75
2022/01/18 06:29:38;;;;;;;5.37;1.90;;;4.80;99.90;;;;;;4969071;28;20934;-74
2022/01/18 06:32:06;;;;;;;3.73;2.00;;;4.90;99.90;;;;;;4967325;28;20459;-75
2022/01/18 06:34:33;;;;;;;3.30;2.50;;;4.90;99.90;;;;;;4952892;28;20457;-74
2022/01/18 06:37:00;;;;;;;8.10;2.20;;;4.90;99.90;;;;;;4971677;28;20460;-74
2022/01/18 06:39:38;;;;;;;2.37;2.10;;;4.90;99.90;;;;;;4971023;28;20821;-74
2022/01/18 06:42:06;;;;;;;3.73;2.00;;;4.90;99.90;;;;;;4952320;28;20970;-74
2022/01/18 06:44:32;;;;;;;5.40;3.13;;;5.00;99.90;;;;;;4961230;28;20499;-74
2022/01/18 06:47:00;;;;;;;4.27;2.33;;;5.00;99.90;;;;;;4965060;28;20460;-74
2022/01/18 06:49:27;;;;;;;7.30;2.70;;;5.00;99.90;;;;;;4952057;28;20535;-74
2022/01/18 06:51:53;;;;;;;3.40;2.17;;;5.00;99.90;;;;;;4970101;28;20456;-74
2022/01/18 06:54:20;;;;;;;4.40;2.37;;;5.00;99.90;;;;;;4971465;28;20507;-75
2022/01/18 06:56:49;;;;;;;2.40;2.20;;;5.00;99.90;;;;;;4962436;28;20518;-74
2022/01/18 06:59:17;;;;;;;2.70;2.50;;;5.10;99.90;;;;;;4969461;28;20483;-74
2022/01/18 07:01:43;;;;;;;2.47;2.13;;;5.00;99.90;;;;;;4964185;28;21054;-75
2022/01/18 07:04:11;;;;;;;5.50;2.17;;;5.10;99.90;;;;;;4971392;28;20471;-74
2022/01/18 07:06:38;;;;;;;3.87;2.00;;;5.10;99.90;;;;;;4971378;28;20805;-74
2022/01/18 07:09:05;;;;;;;6.23;2.00;;;5.10;99.90;;;;;;4971923;28;21057;-74
2022/01/18 07:11:32;;;;;;;2.67;2.10;;;5.10;99.90;;;;;;4964211;28;20456;-74
2022/01/18 07:13:58;;;;;;;3.67;2.00;;;5.10;99.90;;;;;;4959774;28;20453;-74
2022/01/18 07:16:25;;;;;;;4.50;2.10;;;5.10;99.90;;;;;;4961709;28;20468;-74
2022/01/18 07:18:52;;;;;;;4.03;2.20;;;5.10;99.90;;;;;;4964458;28;21297;-74
2022/01/18 07:21:20;;;;;;;3.57;2.17;;;5.10;99.90;;;;;;4959645;28;20484;-74
2022/01/18 07:23:46;;;;;;;9.97;2.57;;;5.10;99.90;;;;;;4959438;28;21032;-74
2022/01/18 07:26:13;;;;;;;2.97;1.97;;;5.20;99.90;;;;;;4959668;28;20453;-74
2022/01/18 07:28:40;;;;;;;8.30;2.30;;;5.20;99.90;;;;;;4957955;28;20479;-74
2022/01/18 07:31:06;;;;;;;5.23;2.27;;;5.20;99.90;;;;;;4961738;28;20453;-75
2022/01/18 07:33:36;;;;;;;5.97;2.17;;;5.20;99.90;;;;;;4964528;28;21094;-74
2022/01/18 07:36:02;;;;;;;4.57;2.20;;;5.20;99.90;;;;;;4969696;28;20998;-74
2022/01/18 07:38:30;;;;;;;9.23;2.80;;;5.20;99.90;;;;;;4966277;28;20546;-74
2022/01/18 07:40:57;;;;;;;8.80;2.90;;;5.10;99.90;;;;;;4973719;28;20542;-74
2022/01/18 07:43:23;;;;;;;7.23;2.97;;;5.00;99.90;;;;;;4979730;28;20458;-74
2022/01/18 07:45:51;;;;;;;7.00;3.10;;;5.00;99.90;;;;;;4973569;28;20510;-75
2022/01/18 07:48:21;;;;;;;3.77;2.80;;;4.80;99.90;;;;;;4962156;28;20469;-74
2022/01/18 07:50:48;;;;;;;6.40;2.70;;;4.70;99.90;;;;;;4971672;28;20960;-74
2022/01/18 07:53:14;;;;;;;7.93;3.10;;;4.70;99.90;;;;;;4973621;28;20452;-74
2022/01/18 07:55:42;;;;;;;5.90;3.03;;;4.70;99.90;;;;;;4974495;28;20455;-74
2022/01/18 07:58:09;;;;;;;8.10;2.50;;;4.70;99.90;;;;;;4972121;28;20530;-74
2022/01/18 08:00:36;;;;;;;8.47;2.93;;;4.80;99.90;;;;;;4967809;28;20559;-74
2022/01/18 08:03:02;;;;;;;11.27;2.50;;;4.90;99.90;;;;;;4971430;28;20526;-74
2022/01/18 08:05:29;;;;;;;8.97;2.37;;;4.90;99.90;;;;;;4972940;28;20539;-73
2022/01/18 08:07:56;;;;;;;10.33;2.67;;;5.00;99.90;;;;;;4973787;28;20479;-75
2022/01/18 08:10:30;;;;;;;3.80;2.33;;;5.10;99.90;;;;;;4972927;28;21015;-74
2022/01/18 08:13:00;;;;;;;3.90;2.43;;;5.10;99.90;;;;;;4972137;28;20462;-74
2022/01/18 08:15:36;;;;;;;6.00;2.47;;;5.10;99.90;;;;;;4968786;28;20562;-74
2022/01/18 08:18:02;;;;;;;8.00;1.90;;;5.20;99.90;;;;;;4965953;28;21030;-74
2022/01/18 08:20:29;;;;;;;4.77;2.00;;;5.20;99.90;;;;;;4962958;28;21007;-74
2022/01/18 08:22:56;;;;;;;7.53;2.93;;;5.20;99.90;;;;;;4964675;28;20472;-74
2022/01/18 08:25:23;;;;;;;3.30;2.77;;;5.20;99.90;;;;;;4967940;28;20523;-74
2022/01/18 08:27:50;;;;;;;9.73;3.27;;;5.30;99.90;;;;;;4966345;28;20471;-76
2022/01/18 08:30:19;;;;;;;9.53;3.20;;;5.30;99.90;;;;;;4972220;28;20768;-76
2022/01/18 08:32:47;;;;;;;7.43;4.00;;;5.40;99.90;;;;;;4967473;28;20464;-75
2022/01/18 08:35:13;;;;;;;7.30;4.00;;;5.40;99.90;;;;;;4966727;28;20455;-76
2022/01/18 08:37:40;;;;;;;6.70;3.40;;;5.40;99.90;;;;;;4972330;28;20464;-76
2022/01/18 08:40:09;;;;;;;6.40;3.30;;;5.40;99.90;;;;;;4971296;28;21071;-76
2022/01/18 08:42:36;;;;;;;6.77;3.70;;;5.40;99.90;;;;;;4954635;28;20825;-74
2022/01/18 08:45:04;;;;;;;12.07;3.60;;;5.50;99.90;;;;;;4971853;28;20453;-74
2022/01/18 08:47:32;;;;;;;8.90;3.77;;;5.50;99.90;;;;;;4972775;28;20456;-75
2022/01/18 08:49:59;;;;;;;15.83;3.57;;;5.50;99.90;;;;;;4972717;28;20535;-76
2022/01/18 08:52:25;;;;;;;5.60;3.30;;;5.50;99.90;;;;;;4971568;28;20464;-75
2022/01/18 08:54:52;;;;;;;11.93;3.63;;;5.50;99.90;;;;;;4971930;28;20511;-75
2022/01/18 08:57:19;;;;;;;8.90;4.10;;;5.40;99.90;;;;;;4972214;28;20460;-75
2022/01/18 08:59:46;;;;;;;7.40;2.90;;;5.30;99.90;;;;;;4971502;28;21074;-74
2022/01/18 09:02:14;;;;;;;8.83;3.13;;;5.30;99.90;;;;;;4972044;28;20872;-74
2022/01/18 09:04:42;;;;;;;4.80;2.80;;;5.20;99.90;;;;;;4971984;28;20464;-75
2022/01/18 09:07:10;;;;;;;12.30;3.57;;;5.20;99.90;;;;;;4966901;28;20744;-75
2022/01/18 09:09:40;;;;;;;5.93;3.50;;;5.20;99.90;;;;;;4969739;28;20495;-75
2022/01/18 09:12:08;;;;;;;8.07;4.00;;;5.20;99.90;;;;;;4971358;28;20959;-74
2022/01/18 09:14:35;;;;;;;6.90;4.00;;;5.20;99.90;;;;;;4971193;28;20452;-74
2022/01/18 09:17:01;;;;;;;20.50;10.13;;;5.20;99.90;;;;;;4971579;28;20463;-74
2022/01/18 09:19:28;;;;;;;18.60;9.20;;;5.30;99.90;;;;;;4971699;28;20538;-75
2022/01/18 09:21:57;;;;;;;10.50;5.83;;;5.30;99.90;;;;;;4971810;28;20519;-74
2022/01/18 09:24:24;;;;;;;14.70;7.77;;;5.40;99.90;;;;;;4964609;28;20459;-75
2022/01/18 09:26:51;;;;;;;11.33;6.37;;;5.50;99.90;;;;;;4970659;28;20512;-75
2022/01/18 09:29:19;;;;;;;13.10;6.43;;;5.50;99.90;;;;;;4971956;28;20472;-74
2022/01/18 09:31:46;;;;;;;9.37;4.33;;;5.50;99.90;;;;;;4971366;28;20786;-74
2022/01/18 09:34:12;;;;;;;6.87;4.20;;;5.60;99.90;;;;;;4965355;28;20987;-74
2022/01/18 09:36:39;;;;;;;6.77;3.60;;;5.70;99.90;;;;;;4962912;28;20456;-74
2022/01/18 09:39:07;;;;;;;8.93;4.27;;;5.70;99.90;;;;;;4962516;28;20539;-74
2022/01/18 09:41:39;;;;;;;6.67;3.73;;;5.70;99.90;;;;;;4965188;28;20496;-74
2022/01/18 09:44:07;;;;;;;13.23;4.27;;;5.70;99.90;;;;;;4972149;28;20464;-74
2022/01/18 09:46:33;;;;;;;12.90;4.00;;;5.80;99.90;;;;;;4960480;28;20461;-74
2022/01/18 09:49:01;;;;;;;12.47;4.27;;;5.80;99.90;;;;;;4971530;28;20526;-74
2022/01/18 09:51:28;;;;;;;10.60;4.20;;;5.80;99.90;;;;;;4970494;28;20459;-74
2022/01/18 09:53:56;;;;;;;8.20;3.67;;;5.80;99.90;;;;;;4969405;28;20465;-74
2022/01/18 09:56:24;;;;;;;8.33;3.80;;;5.80;99.90;;;;;;4953068;28;20576;-74
2022/01/18 09:58:51;;;;;;;6.30;3.70;;;5.80;99.90;;;;;;4953599;28;20477;-74
2022/01/18 10:01:18;;;;;;;5.37;3.67;;;5.90;99.90;;;;;;4952889;28;20485;-75
2022/01/18 10:03:45;;;;;;;8.33;3.60;;;5.90;99.90;;;;;;4953068;28;20821;-74
2022/01/18 10:06:12;;;;;;;5.13;3.20;;;6.00;99.90;;;;;;4966515;28;20460;-74
2022/01/18 10:08:42;;;;;;;13.13;3.67;;;5.90;99.90;;;;;;4971284;28;20890;-74
2022/01/18 10:11:14;;;;;;;5.67;3.33;;;5.90;99.90;;;;;;4971889;28;20452;-75
2022/01/18 10:13:44;;;;;;;6.63;3.83;;;5.90;99.90;;;;;;4966731;28;20464;-75
2022/01/18 10:16:12;;;;;;;8.17;3.50;;;5.90;99.90;;;;;;4965524;28;20464;-74
2022/01/18 10:18:47;;;;;;;9.40;3.83;;;6.00;99.90;;;;;;4970356;28;20480;-74
2022/01/18 10:21:21;;;;;;;9.87;3.47;;;6.00;99.90;;;;;;4971666;28;20581;-74
2022/01/18 10:23:49;;;;;;;7.40;3.10;;;6.10;99.90;;;;;;4972082;28;20999;-75
2022/01/18 10:26:18;;;;;;;5.67;3.30;;;6.10;99.90;;;;;;4971312;28;20875;-74
2022/01/18 10:28:47;;;;;;;17.63;3.43;;;6.20;99.90;;;;;;4958486;28;20996;-75
2022/01/18 10:31:40;;;;;;;7.40;3.30;;;6.30;99.90;;;;;;4974802;28;20444;-75
2022/01/18 10:34:24;;;;;;;12.87;3.67;;;6.40;99.90;;;;;;4969329;28;20471;-75
2022/01/18 10:36:58;;;;;;;10.07;3.63;;;6.40;99.90;;;;;;4971955;28;20463;-74
2022/01/18 10:39:26;;;;;;;7.37;3.63;;;6.50;99.90;;;;;;4968348;28;20483;-74
2022/01/18 10:41:53;;;;;;;3.70;3.40;;;6.60;99.90;;;;;;4969232;28;20499;-75
2022/01/18 10:44:23;;;;;;;15.53;3.93;;;6.80;99.90;;;;;;4965291;28;20468;-74
2022/01/18 10:46:52;;;;;;;6.00;4.10;;;6.80;99.90;;;;;;4962728;28;20488;-75
2022/01/18 10:49:31;;;;;;;7.00;4.63;;;6.80;99.90;;;;;;4968181;28;20479;-74
2022/01/18 10:52:00;;;;;;;13.87;4.30;;;6.80;99.90;;;;;;4971386;28;20515;-74
2022/01/18 10:54:42;;;;;;;9.10;4.70;;;6.90;99.90;;;;;;4971140;28;20456;-74
2022/01/18 10:57:11;;;;;;;7.97;4.50;;;6.90;99.90;;;;;;4952365;28;20472;-74
2022/01/18 10:59:40;;;;;;;14.87;5.40;;;7.00;99.90;;;;;;4965295;28;20488;-74
2022/01/18 11:02:13;;;;;;;5.90;4.40;;;7.00;99.90;;;;;;4971295;28;20488;-74
2022/01/18 11:04:42;;;;;;;6.37;4.27;;;7.10;99.90;;;;;;4970643;28;20507;-74
2022/01/18 11:07:11;;;;;;;8.03;4.10;;;7.10;99.90;;;;;;4973735;28;20455;-73
2022/01/18 11:09:38;;;;;;;8.50;4.03;;;7.10;99.90;;;;;;4973207;28;20558;-74
2022/01/18 11:12:06;;;;;;;7.00;3.73;;;7.20;99.90;;;;;;4974704;28;20444;-73
2022/01/18 11:14:36;;;;;;;6.10;3.63;;;7.30;99.90;;;;;;4970548;28;20463;-74
2022/01/18 11:17:05;;;;;;;5.30;3.30;;;7.30;99.90;;;;;;4957854;28;20461;-73
2022/01/18 11:19:36;;;;;;;2.83;2.63;;;7.50;99.90;;;;;;4956557;28;20564;-74
2022/01/18 11:22:08;;;;;;;4.30;2.73;;;7.40;99.90;;;;;;4970544;28;20574;-74
2022/01/18 11:24:37;;;;;;;7.27;3.37;;;7.50;99.90;;;;;;4974226;28;20540;-74
2022/01/18 11:27:08;;;;;;;12.53;3.80;;;7.50;99.90;;;;;;4977597;28;20452;-74
2022/01/18 11:29:35;;;;;;;5.70;3.00;;;7.60;99.90;;;;;;4965869;28;20861;-74
2022/01/18 11:32:04;;;;;;;4.90;3.00;;;7.70;99.90;;;;;;4970504;28;20455;-74
2022/01/18 11:34:41;;;;;;;7.60;3.47;;;7.80;99.90;;;;;;4958520;28;20456;-74
2022/01/18 11:37:15;;;;;;;6.10;3.60;;;7.80;99.90;;;;;;4966958;28;20944;-74
2022/01/18 11:39:41;;;;;;;4.90;3.30;;;7.90;99.90;;;;;;4971213;28;20471;-74
2022/01/18 11:42:11;;;;;;;4.53;3.70;;;7.90;99.90;;;;;;4976542;28;20483;-74
2022/01/18 11:44:39;;;;;;;4.93;3.03;;;7.90;99.90;;;;;;4976137;28;20474;-74
2022/01/18 11:47:09;;;;;;;7.23;3.30;;;8.00;99.90;;;;;;4964266;28;20562;-73
2022/01/18 11:49:45;;;;;;;6.60;3.23;;;8.00;99.90;;;;;;4976660;28;20503;-74
2022/01/18 11:52:32;;;;;;;4.43;2.00;;;8.00;99.90;;;;;;4969349;28;20448;-74
2022/01/18 11:55:00;;;;;;;6.53;2.47;;;8.00;99.90;;;;;;4971196;28;20464;-74
2022/01/18 11:57:36;;;;;;;2.53;2.33;;;7.90;99.90;;;;;;4976890;28;20492;-74
2022/01/18 12:00:25;;;;;;;2.90;2.13;;;7.90;99.90;;;;;;4963158;28;20476;-73
2022/01/18 12:02:55;;;;;;;4.83;2.33;;;7.90;99.90;;;;;;4959232;28;20551;-73
2022/01/18 12:05:25;;;;;;;2.37;2.17;;;7.80;99.90;;;;;;5002724;23;21089;-68
2022/01/18 12:07:57;;;;;;;2.37;2.20;;;7.80;99.90;;;;;;5014711;28;20549;-68
2022/01/18 12:10:43;;;;;;;2.33;2.13;;;7.80;99.90;;;;;;5026086;28;20500;-68
2022/01/18 12:13:14;;;;;;;4.20;3.03;;;7.80;99.90;;;;;;5032424;28;20835;-68
2022/01/18 12:15:49;;;;;;;2.70;2.43;;;7.90;99.90;;;;;;5017637;28;20569;-68
2022/01/18 12:18:19;;;;;;;4.80;2.70;;;7.90;99.90;;;;;;5013042;28;20453;-67
2022/01/18 12:20:48;;;;;;;4.70;2.77;;;7.90;99.90;;;;;;4996052;28;20455;-67
2022/01/18 12:23:17;;;;;;;3.13;2.27;;;7.90;99.90;;;;;;5008014;28;20483;-68
2022/01/18 12:25:55;;;;;;;4.50;2.40;;;7.80;99.90;;;;;;5006725;28;20486;-67
2022/01/18 12:29:20;;;;;;;2.50;2.30;;;7.80;99.90;;;;;;5002913;28;20469;-68
2022/01/18 12:35:00;;;;;;;4.20;2.40;;;7.70;99.90;;;;;;4998456;28;20465;-68
2022/01/18 12:37:38;;;;;;;5.13;2.57;;;7.70;99.90;;;;;;5011784;28;20466;-68
2022/01/18 12:40:22;;;;;;;4.73;2.80;;;7.70;99.90;;;;;;5009386;28;20961;-67
2022/01/18 12:45:45;;;;;;;4.20;2.80;;;7.70;99.90;;;;;;5000469;28;20461;-68
2022/01/18 12:48:14;;;;;;;2.93;2.30;;;7.80;99.90;;;;;;4993533;28;20966;-67
2022/01/18 12:50:44;;;;;;;6.40;2.57;;;7.90;99.90;;;;;;5010298;28;20875;-68
2022/01/18 12:53:12;;;;;;;2.10;1.90;;;7.80;99.90;;;;;;5012064;28;20450;-67
2022/01/18 12:55:42;;;;;;;1.80;1.70;;;7.80;99.90;;;;;;5012070;28;20477;-68
2022/01/18 12:58:11;;;;;;;2.90;2.00;;;7.70;99.90;;;;;;5002071;28;20455;-68
2022/01/18 13:00:43;;;;;;;2.50;2.30;;;7.70;99.90;;;;;;5013852;28;20466;-69
2022/01/18 13:03:15;;;;;;;1.70;1.47;;;7.60;99.90;;;;;;5011629;28;20482;-69
2022/01/18 13:05:46;;;;;;;2.77;2.40;;;7.50;99.90;;;;;;5011766;28;20536;-68
2022/01/18 13:08:14;;;;;;;1.83;1.73;;;7.50;99.90;;;;;;5008943;28;20594;-68
2022/01/18 13:10:43;;;;;;;5.60;3.23;;;7.50;99.90;;;;;;5010729;28;21021;-68
2022/01/18 13:13:13;;;;;;;3.80;3.17;;;7.50;99.90;;;;;;5008240;28;20953;-69
2022/01/18 13:15:50;;;;;;;6.37;3.67;;;7.40;99.90;;;;;;5007975;28;20521;-69
2022/01/18 13:24:09;;;;;;;6.67;4.20;;;7.20;99.90;;;;;;5017232;28;21382;-72
2022/01/18 13:26:42;;;;;;;12.83;4.57;;;7.00;99.90;;;;;;5017443;28;21344;-68
2022/01/18 13:29:14;;;;;;;11.20;4.60;;;6.90;99.90;;;;;;5024318;28;20941;-69
2022/01/18 13:31:43;;;;;;;5.50;4.40;;;6.80;99.90;;;;;;5021852;28;20530;-68
2022/01/18 13:34:13;;;;;;;8.27;4.30;;;6.80;99.90;;;;;;5018884;28;20541;-70
2022/01/18 13:36:53;;;;;;;7.63;4.40;;;6.70;99.90;;;;;;5016739;28;20555;-70
2022/01/18 13:39:22;;;;;;;8.73;4.20;;;6.70;99.90;;;;;;5015391;28;20450;-69
2022/01/18 13:41:49;;;;;;;13.97;3.93;;;6.70;99.90;;;;;;5019410;28;20454;-70
2022/01/18 13:44:16;;;;;;;6.63;4.20;;;6.70;99.90;;;;;;5019815;28;20449;-68
2022/01/18 13:46:42;;;;;;;7.30;4.23;;;6.70;99.90;;;;;;5018432;28;20485;-70
2022/01/18 13:49:10;;;;;;;6.77;4.13;;;6.70;99.90;;;;;;5016799;28;20961;-70
2022/01/18 13:51:37;;;;;;;7.63;4.50;;;6.70;99.90;;;;;;5015231;28;20562;-70
2022/01/18 13:54:08;;;;;;;5.97;4.20;;;6.70;99.90;;;;;;5013594;28;20450;-69
2022/01/18 13:56:43;;;;;;;10.87;4.37;;;6.70;99.90;;;;;;5014064;28;20494;-68
2022/01/18 13:59:09;;;;;;;6.70;4.70;;;6.70;99.90;;;;;;5019363;28;20941;-69